Tiempo atmosférico en la estación meteorológica de Olmedo, Depósito de Agua, Valladolid (786 m.)



Fecha
DESCASC
Temp. máxima en grados centígrados (hora)
DESCASC
Temp. mínima en grados centígrados (hora)
DESCASC
Temp. media en grados centígrados
DESCASC
Racha de viento máxima en m/sg (hora)
DESCASC
Velocidad máxima media en intervalos de 10 minutos(hora)
DESCASC
Precipitaciones diarias en mm
DESCASC
Precipitaciones de 00:00 a 06:00 en mm
DESCASC
Precipitaciones de 06:00 a 12:00 en mm
DESCASC
Precipitaciones de 12:00 a 18:00 en mm
DESCASC
Precipitaciones de 18:00 a 24:00 en mm
DESCASC
25-04-2019 12.4 (16:10) 4 (06:50) 8.2 18.61 (17:10) 11.11 (15:50) 3.4 1 2.2 0.2 0
24-04-2019 15.6 (16:30) 2.2 (03:40) 8.9 25.83 (15:30) 15.28 (16:30) 9 0 4.6 0.4 4
23-04-2019 14.5 (15:50) 3.7 (23:50) 9.1 16.11 (14:50) 8.89 (17:30) 0.8 0.4 0.4 0 0
22-04-2019 19.3 (15:50) 2.9 (00:00) 11.1 11.67 (20:30) 6.11 (20:30) 0 0 0 0 0
21-04-2019 15.6 (14:20) 6.5 (00:00) 11.1 10 (10:30) 6.39 (12:10) 0 0 0 0 0
20-04-2019 21.8 (18:00) 9.4 (00:00) 15.6 17.22 (13:30) 10.28 (13:30) 0 0 0 0 0
19-04-2019 14.7 (13:40) 7 (00:00) 10.8 13.06 (22:50) 8.06 (22:50) 0.8 0.8 0 0 0
18-04-2019 13.4 (16:30) 8 (00:00) 10.7 6.67 (14:10) 5 (14:10) 2 1.2 0.2 0 0.6
17-04-2019 20.5 (17:00) 8.6 (00:00) 14.6 16.11 (12:40) 11.67 (12:40) 0 0 0 0 0
16-04-2019 21.4 (16:30) 2.7 (00:00) 12 8.61 (17:30) 6.39 (19:20) 0.2 0.2 0 0 0
15-04-2019 21.8 (13:10) 7.4 (00:00) 14.6 19.17 (13:40) 11.11 (16:10) 6.8 0 0 6.2 0.6
14-04-2019 22.5 (17:20) 10.1 (00:00) 16.3 6.67 (15:00) 3.89 (09:40) 0 0 0 0 0
13-04-2019 21 (17:00) -0.4 (00:00) 10.3 5.56 (17:50) 3.61 (02:50) 0 0 0 0 0
12-04-2019 16.4 (18:50) -0.7 (07:30) 7.8 7.22 (14:30) 4.17 (00:40) 0 0 0 0 0
11-04-2019 14.1 (17:10) 0.6 (00:00) 7.4 6.67 (23:00) 4.17 (23:20) 0 0 0 0 0
10-04-2019 12.5 (14:40) 1.9 (00:00) 7.2 9.44 (02:50) 5 (00:50) 2 0 1 0.8 0.2
09-04-2019 12.5 (17:20) 2 (00:00) 7.3 12.78 (12:50) 8.61 (11:30) 1.2 0 0.6 0.6 0
08-04-2019 14.6 (17:40) 3.9 (00:00) 9.3 13.06 (21:10) 7.22 (21:10) 0.8 0.4 0 0.4 0
07-04-2019 12.8 (14:50) 0.8 (00:00) 6.8 10.28 (15:00) 6.94 (16:40) 5.2 1.6 0 0.4 3.2
06-04-2019 10 (15:50) 2.1 (00:00) 6 20.28 (11:30) 11.67 (11:00) 0 0 0 0 0
05-04-2019 8.4 (15:20) 2.3 (00:00) 5.3 10.28 (20:50) 5.83 (08:20) 4.8 0.8 2.4 1.6 0
04-04-2019 13 (17:10) -4.3 (-00:0) 4.3 11.67 (16:10) 6.11 (16:00) 0 0 0 0 0
03-04-2019 12.8 (17:10) 2 (06:00) 7.4 13.61 (19:30) 8.33 (16:10) 0 0 0 0 0
02-04-2019 18.9 (16:10) 4.9 (00:00) 11.9 10 (12:40) 5.28 (18:30) 0.4 0 0.4 0 0
01-04-2019 19.2 (15:50) 2.9 (00:00) 11.1 5.83 (16:10) 4.17 (23:30) 0 0 0 0 0
31-03-2019 20.3 (15:10) 2.6 (00:00) 11.4 11.39 (15:10) 6.39 (16:10) 0 0 0 0 0
30-03-2019 20.9 (15:20) 1.6 (00:00) 11.2 9.17 (02:30) 6.67 (03:20) 0 0 0 0 0
29-03-2019 19.5 (15:20) 0.4 (00:00) 10 11.11 (10:30) 7.5 (10:50) 0 0 0 0 0
28-03-2019 19.2 (15:20) -0.1 (00:00) 9.6 6.94 (00:10) 5 (00:20) 0 0 0 0 0
27-03-2019 19.7 (16:50) -1.3 (-00:0) 9.2 10 (19:00) 6.67 (19:10) 0 0 0 0 0

Gráficas

Temp. máximas Temp. mínimas Temp. medias Precipitaciones Rachas de viento máximas Velocidades máximas media en intervalos de 10 minutos

Datos horarios

Fecha y hora oficial Temperatura (ºC) Velocidad del viento (km/h) Dirección del viento Racha (km/h) Dirección de racha Precipitación (mm) Presión (hPa) Tendencia (hPa) Humedad (%)
2019-04-25 23:00:00 6.3 27 Oeste 46 Sudoeste 0 -- -- 78
2019-04-25 22:00:00 6.7 21 Oeste 50 Sudoeste 0 -- -- 79
2019-04-25 21:00:00 8 26 Oeste 56 Oeste 0 -- -- 74
2019-04-25 20:00:00 10.2 32 Oeste 54 Oeste 0 -- -- 59
2019-04-25 19:00:00 10.4 33 Oeste 58 Oeste 0 -- -- 59
2019-04-25 18:00:00 12 34 Oeste 67 Oeste 0.2 -- -- 52
2019-04-25 17:00:00 11 29 Oeste 61 Oeste 0 -- -- 56
2019-04-25 16:00:00 12.1 35 Oeste 66 Sudoeste 0 -- -- 54
2019-04-25 15:00:00 12 31 Oeste 54 Sudoeste 0 -- -- 59
2019-04-25 14:00:00 10.8 23 Oeste 51 Sudoeste 0 -- -- 59
2019-04-25 13:00:00 9.9 28 Oeste 46 Sudoeste 0 -- -- 67
2019-04-25 12:00:00 7.3 29 Sudoeste 48 Oeste 0 -- -- 75
2019-04-25 11:00:00 7.6 32 Sudoeste 50 Oeste 0 -- -- 79
2019-04-25 10:00:00 6.3 26 Oeste 40 Sudoeste 0 -- -- 80
2019-04-25 09:00:00 5.3 19 Sudoeste 34 Sudoeste 0 -- -- 88
2019-04-25 08:00:00 5.1 21 Sudoeste 32 Sudoeste 0 -- -- 92
2019-04-25 07:00:00 4 19 Sudoeste 34 Sudoeste 2.2 -- -- 95
2019-04-25 06:00:00 4.8 9 Sudoeste 28 Oeste 0 -- -- 93
2019-04-25 05:00:00 4.7 12 Oeste 32 Sudoeste 0 -- -- 90
2019-04-25 04:00:00 4.8 24 Oeste 47 Oeste 0.6 -- -- 90
2019-04-25 03:00:00 5.7 12 Oeste 29 Oeste 0 -- -- 91
2019-04-25 02:00:00 6.7 23 Sudoeste 45 Sudoeste 0 -- -- 88
2019-04-25 01:00:00 7.5 32 Sudoeste 47 Sudoeste 0.4 -- -- 89
2019-04-25 00:00:00 7.6 25 Sudoeste 45 Sudoeste 1.6 -- -- 91
2019-04-24 23:00:00 8.2 30 Sudoeste 46 Sudoeste 0.6 -- -- 91
2019-04-24 22:00:00 9 28 Sudoeste 41 Sudoeste 0 -- -- 86
2019-04-24 21:00:00 9 28 Sudoeste 45 Sudoeste 0 -- -- 87
2019-04-24 20:00:00 9.4 30 Sudoeste 58 Sudoeste 0.2 -- -- 89
2019-04-24 19:00:00 9.6 43 Sudoeste 68 Oeste 1.6 -- -- 85
2019-04-24 18:00:00 11.7 30 Oeste 64 Sudoeste 0.2 -- -- 80
2019-04-24 17:00:00 14.2 52 Sudoeste 78 Sudoeste 0 -- -- 60
2019-04-24 16:00:00 13.7 52 Sudoeste 93 Sudoeste 0 -- -- 64
2019-04-24 15:00:00 13.9 51 Sudoeste 78 Sudoeste 0.2 -- -- 64
2019-04-24 14:00:00 12.1 34 Sudoeste 54 Sudoeste 0 -- -- 75
2019-04-24 13:00:00 11.1 34 Sudoeste 60 Sudoeste 0 -- -- 79
2019-04-24 12:00:00 10.3 30 Sudoeste 47 Sur 0.2 -- -- 79
2019-04-24 11:00:00 5.7 27 Sur 44 Sur 0.2 -- -- 89
2019-04-24 10:00:00 4.8 34 Sur 48 Sur 1 -- -- 88
2019-04-24 09:00:00 3.7 23 Sur 37 Sur 1.8 -- -- 91
2019-04-24 08:00:00 3.6 23 Sur 35 Sur 1.4 -- -- 89
2019-04-24 07:00:00 3.7 14 Sur 23 Sur 0 -- -- 86
2019-04-24 06:00:00 4 14 Sur 25 Sudoeste 0 -- -- 82
2019-04-24 05:00:00 3.1 14 Sudoeste 24 Sudoeste 0 -- -- 89
2019-04-24 04:00:00 2.4 18 Sudoeste 28 Sudoeste 0 -- -- 91
2019-04-24 03:00:00 2.5 16 Sudoeste 23 Sudoeste 0 -- -- 90
2019-04-24 02:00:00 2.5 15 Sudoeste 24 Sudoeste 0 -- -- 90
2019-04-24 01:00:00 2.9 17 Sudoeste 24 Sudoeste 0 -- -- 88
2019-04-24 00:00:00 3.7 18 Sudoeste 27 Sudoeste 0 -- -- 87
2019-04-23 23:00:00 4.4 17 Sudoeste 24 Sudoeste 0 -- -- 85
2019-04-23 22:00:00 4.7 14 Sudoeste 30 Sudoeste 0 -- -- 83
2019-04-23 21:00:00 6.2 23 Oeste 39 Sudoeste 0 -- -- 74
2019-04-23 20:00:00 8.8 18 Oeste 34 Oeste 0 -- -- 62
2019-04-23 19:00:00 8.8 19 Oeste 45 Oeste 0 -- -- 65
2019-04-23 18:00:00 12 29 Oeste 53 Oeste 0 -- -- 51
2019-04-23 17:00:00 13.8 26 Oeste 42 Oeste 0 -- -- 41
2019-04-23 16:00:00 14.2 24 Oeste 44 Oeste 0 -- -- 43
2019-04-23 15:00:00 13.5 21 Sudoeste 58 Oeste 0 -- -- 41
2019-04-23 14:00:00 11.4 13 Oeste 28 Oeste 0 -- -- 52
2019-04-23 13:00:00 9.4 15 Oeste 30 Oeste 0 -- -- 66
2019-04-23 12:00:00 8.1 16 Oeste 25 Oeste 0 -- -- 69
2019-04-23 11:00:00 7.9 14 Oeste 27 Sudoeste 0 -- -- 72
2019-04-23 10:00:00 6.9 13 Oeste 25 Oeste 0 -- -- 83
2019-04-23 09:00:00 6.4 7 Oeste 13 Sudoeste 0.2 -- -- 90
2019-04-23 08:00:00 6.3 5 Oeste 16 Oeste 0.2 -- -- 89
2019-04-23 07:00:00 6.8 6 Oeste 19 Noroeste 0 -- -- 87
2019-04-23 06:00:00 7.4 10 Noroeste 33 Sudoeste 0.2 -- -- 86
2019-04-23 05:00:00 10.1 9 Sudoeste 19 Sudoeste 0 -- -- 82
2019-04-23 04:00:00 9.7 5 Sudeste 13 Sudoeste 0 -- -- 86
2019-04-23 03:00:00 9.7 10 Sudoeste 18 Sudoeste 0.2 -- -- 84
2019-04-23 02:00:00 10.8 5 Oeste 24 Oeste 0 -- -- 83
2019-04-23 01:00:00 12.4 14 Sudoeste 22 Sudoeste 0 -- -- 67
2019-04-23 00:00:00 10.9 11 Sudoeste 14 Sudoeste 0 -- -- 67
2019-04-22 23:00:00 11.4 8 Sudoeste 17 Sudoeste 0 -- -- 65
2019-04-22 22:00:00 12.1 9 Sur 12 Sur 0 -- -- 66
2019-04-22 21:00:00 13.5 5 Oeste 42 Sudoeste 0 -- -- 60
2019-04-22 20:00:00 16 14 Oeste 32 Oeste 0 -- -- 50
2019-04-22 19:00:00 17.7 12 Sudoeste 24 Sudoeste 0 -- -- 39
2019-04-22 18:00:00 17.9 12 Sudoeste 26 Oeste 0 -- -- 38
2019-04-22 17:00:00 18.5 10 Sudoeste 22 Oeste 0 -- -- 38
2019-04-22 16:00:00 18.8 10 Oeste 25 Oeste 0 -- -- 38
2019-04-22 15:00:00 17.1 7 Noroeste 15 Noroeste 0 -- -- 41
2019-04-22 14:00:00 17.2 5 Sudoeste 18 Nordeste 0 -- -- 45
2019-04-22 13:00:00 15.5 5 Sur 24 Oeste 0 -- -- 49
2019-04-22 12:00:00 14.1 5 Noroeste 14 Noroeste 0 -- -- 56
2019-04-22 11:00:00 11.7 9 Oeste 17 Oeste 0 -- -- 64
2019-04-22 10:00:00 8.9 9 Sudoeste 13 Sudoeste 0 -- -- 74
2019-04-22 09:00:00 5.9 3 Oeste 7 Oeste 0 -- -- 87
2019-04-22 08:00:00 2.9 3 Sudoeste 9 Sur 0 -- -- 90
2019-04-22 07:00:00 4.8 5 Este 7 Este 0 -- -- 88
2019-04-22 06:00:00 5.3 5 Este 8 Este 0 -- -- 86
2019-04-22 05:00:00 6.3 6 Este 8 Este 0 -- -- 81
2019-04-22 04:00:00 7.3 5 Norte 10 Este 0 -- -- 78
2019-04-22 03:00:00 8.5 5 Este 10 Este 0 -- -- 73
2019-04-22 02:00:00 9.5 7 Este 15 Nordeste 0 -- -- 69
2019-04-22 01:00:00 9.6 6 Nordeste 14 Nordeste 0 -- -- 69
2019-04-22 00:00:00 9.9 8 Nordeste 19 Nordeste 0 -- -- 65
2019-04-21 23:00:00 10.3 11 Este 18 Este 0 -- -- 64
2019-04-21 22:00:00 10.8 11 Nordeste 26 Este 0 -- -- 63
2019-04-21 21:00:00 11.7 17 Este 27 Este 0 -- -- 59
2019-04-21 20:00:00 13.2 18 Este 27 Nordeste 0 -- -- 52
2019-04-21 19:00:00 13.8 16 Este 25 Este 0 -- -- 52
2019-04-21 18:00:00 12.9 14 Nordeste 28 Este 0 -- -- 55
2019-04-21 17:00:00 14.5 21 Nordeste 36 Nordeste 0 -- -- 49
2019-04-21 16:00:00 14.4 22 Nordeste 35 Este 0 -- -- 50
2019-04-21 15:00:00 14.8 21 Nordeste 36 Nordeste 0 -- -- 49
2019-04-21 14:00:00 15.3 20 Nordeste 33 Este 0 -- -- 47
2019-04-21 13:00:00 13.8 19 Nordeste 35 Nordeste 0 -- -- 54
2019-04-21 12:00:00 13.3 22 Nordeste 33 Nordeste 0 -- -- 57
2019-04-21 11:00:00 12.7 19 Este 36 Este 0 -- -- 59
2019-04-21 10:00:00 9.2 14 Nordeste 25 Nordeste 0 -- -- 71
2019-04-21 09:00:00 8.2 15 Nordeste 25 Nordeste 0 -- -- 74
2019-04-21 08:00:00 6.5 14 Nordeste 23 Este 0 -- -- 80
2019-04-21 07:00:00 7.5 9 Nordeste 19 Nordeste 0 -- -- 77
2019-04-21 06:00:00 7.8 10 Nordeste 19 Nordeste 0 -- -- 75
2019-04-21 05:00:00 7.2 11 Este 15 Este 0 -- -- 75
2019-04-21 04:00:00 8.1 10 Este 17 Este 0 -- -- 69
2019-04-21 03:00:00 9.1 9 Este 15 Nordeste 0 -- -- 66
2019-04-21 02:00:00 10.2 9 Este 22 Este 0 -- -- 61
2019-04-21 01:00:00 12.1 16 Este 30 Nordeste 0 -- -- 53
2019-04-21 00:00:00 12.7 14 Este 29 Nordeste 0 -- -- 50
2019-04-20 23:00:00 14.2 13 Nordeste 21 Nordeste 0 -- -- 50
2019-04-20 22:00:00 15.6 14 Nordeste 22 Nordeste 0 -- -- 45
2019-04-20 21:00:00 17.4 11 Nordeste 24 Nordeste 0 -- -- 44
2019-04-20 20:00:00 19.8 13 Nordeste 37 Nordeste 0 -- -- 39
2019-04-20 19:00:00 20.5 19 Nordeste 32 Nordeste 0 -- -- 39
2019-04-20 18:00:00 21.8 15 Nordeste 42 Este 0 -- -- 34
2019-04-20 17:00:00 21.2 24 Este 46 Este 0 -- -- 35
2019-04-20 16:00:00 21 24 Este 48 Este 0 -- -- 34
2019-04-20 15:00:00 20.3 30 Nordeste 48 Nordeste 0 -- -- 35
2019-04-20 14:00:00 19.3 33 Nordeste 62 Nordeste 0 -- -- 37
2019-04-20 13:00:00 18.9 29 Este 51 Este 0 -- -- 37
2019-04-20 12:00:00 16.9 31 Nordeste 52 Nordeste 0 -- -- 44
2019-04-20 11:00:00 15.1 33 Nordeste 50 Nordeste 0 -- -- 48
2019-04-20 10:00:00 13.2 27 Nordeste 42 Nordeste 0 -- -- 55
2019-04-20 09:00:00 11 16 Nordeste 32 Nordeste 0 -- -- 66
2019-04-20 08:00:00 9.4 18 Nordeste 27 Nordeste 0 -- -- 73
2019-04-20 07:00:00 9.8 17 Nordeste 33 Nordeste 0 -- -- 71
2019-04-20 06:00:00 10.5 17 Nordeste 37 Nordeste 0 -- -- 66
2019-04-20 05:00:00 11.4 19 Nordeste 40 Este 0 -- -- 61
2019-04-20 04:00:00 11 24 Este 44 Nordeste 0 -- -- 63
2019-04-20 03:00:00 10.8 17 Nordeste 43 Este 0 -- -- 67
2019-04-20 02:00:00 11.3 28 Nordeste 44 Nordeste 0 -- -- 65
2019-04-20 01:00:00 11.9 25 Nordeste 45 Este 0 -- -- 63
2019-04-20 00:00:00 12.1 22 Este 45 Este 0 -- -- 64
2019-04-19 23:00:00 12.6 28 Este 47 Nordeste 0 -- -- 65
2019-04-19 22:00:00 12.8 27 Nordeste 44 Este 0 -- -- 66
2019-04-19 21:00:00 12.9 23 Nordeste 37 Este 0 -- -- 69
2019-04-19 20:00:00 13.4 16 Nordeste 25 Nordeste 0 -- -- 72
2019-04-19 19:00:00 11.8 13 Nordeste 28 Este 0 -- -- 79
2019-04-19 18:00:00 11.7 18 Nordeste 35 Este 0 -- -- 78
2019-04-19 17:00:00 12.5 26 Nordeste 36 Este 0 -- -- 72
2019-04-19 16:00:00 14.5 21 Nordeste 33 Nordeste 0 -- -- 66
2019-04-19 15:00:00 14.3 17 Nordeste 27 Este 0 -- -- 63
2019-04-19 14:00:00 14.7 17 Este 27 Este 0 -- -- 60
2019-04-19 13:00:00 13.9 17 Este 27 Este 0 -- -- 63
2019-04-19 12:00:00 13.4 15 Este 30 Este 0 -- -- 71
2019-04-19 11:00:00 10.5 14 Este 21 Este 0 -- -- 83
2019-04-19 10:00:00 8.6 10 Este 16 Este 0 -- -- 91
2019-04-19 09:00:00 7.2 8 Este 13 Nordeste 0 -- -- 97
2019-04-19 08:00:00 7.4 8 Este 12 Este 0 -- -- 97
2019-04-19 07:00:00 7.8 5 Este 10 Este 0 -- -- 97
2019-04-19 06:00:00 8.2 8 Este 13 Sudeste 0 -- -- 96
2019-04-19 05:00:00 8.3 6 Sudeste 9 Sur 0.2 -- -- 96
2019-04-19 04:00:00 8.1 10 Sudeste 17 Este 0 -- -- 96
2019-04-19 03:00:00 8.1 10 Este 15 Nordeste 0.2 -- -- 96
2019-04-19 02:00:00 8.2 8 Este 13 Este 0.2 -- -- 95
2019-04-19 01:00:00 8.7 9 Este 13 Este 0.2 -- -- 95
2019-04-19 00:00:00 8.9 5 Nordeste 9 Norte 0.4 -- -- 95
2019-04-18 23:00:00 9 5 Norte 10 Norte 0.2 -- -- 92
2019-04-18 22:00:00 9.4 5 Norte 13 Norte 0 -- -- 88
2019-04-18 21:00:00 10 10 Nordeste 18 Norte 0 -- -- 82
2019-04-18 20:00:00 10.8 10 Norte 20 Norte 0 -- -- 76
2019-04-18 19:00:00 11.7 12 Norte 21 Noroeste 0 -- -- 72
2019-04-18 18:00:00 12.5 10 Nordeste 21 Nordeste 0 -- -- 68
2019-04-18 17:00:00 12.9 12 Nordeste 18 Este 0 -- -- 67
2019-04-18 16:00:00 12.6 10 Este 18 Este 0 -- -- 67
2019-04-18 15:00:00 11.3 13 Este 24 Este 0 -- -- 73
2019-04-18 14:00:00 11.6 16 Este 24 Este 0 -- -- 76
2019-04-18 13:00:00 11.8 12 Nordeste 19 Nordeste 0 -- -- 75
2019-04-18 12:00:00 11.7 5 Nordeste 9 Nordeste 0.2 -- -- 77
2019-04-18 11:00:00 10.5 2 Noroeste 5 Noroeste 0 -- -- 80
2019-04-18 10:00:00 9.6 0 Calma 4 Oeste 0 -- -- 84
2019-04-18 09:00:00 8.8 2 Sudeste 4 Sur 0 -- -- 90
2019-04-18 08:00:00 8.2 5 Sudeste 7 Sudoeste 0 -- -- 92
2019-04-18 07:00:00 8.5 3 Sudoeste 9 Sudoeste 0 -- -- 90
2019-04-18 06:00:00 8.7 5 Oeste 8 Sudoeste 0 -- -- 88
2019-04-18 05:00:00 8.9 0 Calma 6 Oeste 0 -- -- 91
2019-04-18 04:00:00 8.8 2 Oeste 6 Oeste 0.2 -- -- 93
2019-04-18 03:00:00 9.1 4 Oeste 13 Sudoeste 0.4 -- -- 92
2019-04-18 02:00:00 9.3 7 Sur 12 Sudoeste 0.6 -- -- 88
2019-04-18 01:00:00 10 6 Sudoeste 16 Oeste 0 -- -- 82
2019-04-18 00:00:00 10.8 9 Oeste 27 Sudoeste 0 -- -- 72
2019-04-17 23:00:00 13 15 Oeste 39 Sur 0 -- -- 70
2019-04-17 22:00:00 14.9 28 Sudeste 46 Sur 0 -- -- 59
2019-04-17 21:00:00 15.3 19 Sur 34 Sur 0 -- -- 59
2019-04-17 20:00:00 16.6 19 Sur 41 Sudoeste 0 -- -- 54
2019-04-17 19:00:00 17.2 29 Sudoeste 55 Sur 0 -- -- 52
2019-04-17 18:00:00 19.2 25 Sur 44 Sur 0 -- -- 45
2019-04-17 17:00:00 20.5 26 Sur 42 Sur 0 -- -- 42
2019-04-17 16:00:00 18.8 28 Sur 49 Sudeste 0 -- -- 42
2019-04-17 15:00:00 18.3 36 Sur 50 Sur 0 -- -- 44
2019-04-17 14:00:00 20.2 37 Sur 56 Sur 0 -- -- 40
2019-04-17 13:00:00 18.7 41 Sur 58 Sur 0 -- -- 42
2019-04-17 12:00:00 17 22 Sur 46 Sudeste 0 -- -- 51
2019-04-17 11:00:00 13.7 32 Sudeste 40 Sudeste 0 -- -- 60
2019-04-17 10:00:00 12.3 20 Sudeste 33 Sudeste 0 -- -- 67
2019-04-17 09:00:00 11.3 13 Sudeste 25 Sudeste 0 -- -- 71
2019-04-17 08:00:00 10.2 16 Sur 27 Sur 0 -- -- 75
2019-04-17 07:00:00 10.5 20 Sudeste 26 Sudeste 0 -- -- 73
2019-04-17 06:00:00 11.4 16 Sudeste 23 Sudeste 0 -- -- 69
2019-04-17 05:00:00 11.6 14 Sudeste 28 Sudeste 0 -- -- 69
2019-04-17 04:00:00 12.5 21 Sudeste 32 Sudeste 0 -- -- 66
2019-04-17 03:00:00 10.5 12 Sudeste 36 Sudeste 0 -- -- 63
2019-04-17 02:00:00 8.7 11 Sudeste 16 Sudeste 0 -- -- 64
2019-04-17 01:00:00 10.1 6 Sudeste 15 Sur 0 -- -- 58
2019-04-17 00:00:00 9.9 12 Sur 18 Sudoeste 0 -- -- 62
2019-04-16 23:00:00 12.1 18 Sur 24 Sur 0 -- -- 55
2019-04-16 22:00:00 14.2 19 Sur 28 Sur 0 -- -- 45
2019-04-16 21:00:00 16.1 17 Sudeste 28 Sudeste 0 -- -- 39
2019-04-16 20:00:00 17.7 18 Sur 31 Sudeste 0 -- -- 38
2019-04-16 19:00:00 20.2 18 Sudeste 30 Sur 0 -- -- 36
2019-04-16 18:00:00 20.8 16 Sur 31 Sur 0 -- -- 34
2019-04-16 17:00:00 21.2 16 Sur 30 Sudeste 0 -- -- 34
2019-04-16 16:00:00 20.8 12 Sudeste 21 Sudeste 0 -- -- 39
2019-04-16 15:00:00 19.2 9 Sudoeste 21 Sudeste 0 -- -- 39
2019-04-16 14:00:00 17.9 8 Sudeste 19 Sudeste 0 -- -- 44
2019-04-16 13:00:00 15.6 10 Este 17 Este 0 -- -- 56
2019-04-16 12:00:00 13.4 5 Este 11 Este 0 -- -- 64
2019-04-16 11:00:00 10.8 5 Este 8 Sudeste 0 -- -- 78
2019-04-16 10:00:00 7.6 4 Este 10 Este 0 -- -- 89
2019-04-16 09:00:00 5.2 3 Este 7 Este 0 -- -- 97
2019-04-16 08:00:00 3.3 5 Sudeste 11 Sur 0 -- -- 98
2019-04-16 07:00:00 2.9 8 Sudoeste 15 Sur 0 -- -- 97
2019-04-16 06:00:00 3.1 10 Sur 13 Sudoeste 0 -- -- 96
2019-04-16 05:00:00 3.4 11 Sudoeste 13 Sudoeste 0 -- -- 95
2019-04-16 04:00:00 4.7 12 Sudoeste 16 Sudoeste 0.2 -- -- 96
2019-04-16 03:00:00 5 10 Sudoeste 16 Sudoeste 0 -- -- 94
2019-04-16 02:00:00 5.9 10 Sudoeste 16 Sudoeste 0 -- -- 95
2019-04-16 01:00:00 6.6 13 Sudoeste 17 Sudoeste 0 -- -- 93
2019-04-16 00:00:00 7.8 11 Sudoeste 16 Sudoeste 0 -- -- 93
2019-04-15 23:00:00 7.4 12 Sudoeste 16 Sudoeste 0 -- -- 93
2019-04-15 22:00:00 8.9 15 Sudoeste 23 Sudoeste 0 -- -- 91
2019-04-15 21:00:00 10.1 12 Sudoeste 27 Oeste 0 -- -- 87
2019-04-15 20:00:00 10.5 14 Oeste 44 Oeste 0.6 -- -- 83
2019-04-15 19:00:00 13.4 27 Oeste 57 Oeste 0 -- -- 57
2019-04-15 18:00:00 16.2 32 Oeste 54 Oeste 0 -- -- 53
2019-04-15 17:00:00 19 30 Oeste 63 Oeste 0 -- -- 55
2019-04-15 16:00:00 20.3 36 Oeste 60 Oeste 0 -- -- 46
2019-04-15 15:00:00 20 25 Sudoeste 39 Sudoeste 1 -- -- 61
2019-04-15 14:00:00 15.9 28 Sudoeste 69 Oeste 5.2 -- -- 73
2019-04-15 13:00:00 21.2 31 Sur 44 Sur 0 -- -- 54
2019-04-15 12:00:00 18.4 32 Sur 42 Sur 0 -- -- 62
2019-04-15 11:00:00 16.3 19 Sur 26 Sur 0 -- -- 70
2019-04-15 10:00:00 12.9 9 Sudeste 14 Sudeste 0 -- -- 81
2019-04-15 09:00:00 9.7 13 Sudeste 17 Sudeste 0 -- -- 88
2019-04-15 08:00:00 9.3 8 Sudeste 16 Sudeste 0 -- -- 90
2019-04-15 07:00:00 8.2 11 Sudeste 13 Sudeste 0 -- -- 91
2019-04-15 06:00:00 8.4 6 Sudeste 11 Sudeste 0 -- -- 91
2019-04-15 05:00:00 9 8 Sudeste 10 Sudeste 0 -- -- 88
2019-04-15 04:00:00 9.6 7 Sudoeste 10 Sudeste 0 -- -- 86
2019-04-15 03:00:00 10.6 9 Sudeste 14 Sudeste 0 -- -- 83
2019-04-15 02:00:00 12.4 3 Sudeste 15 Sur 0 -- -- 76
2019-04-15 01:00:00 12 13 Sur 14 Sur 0 -- -- 80
2019-04-15 00:00:00 12 10 Sudoeste 13 Sudoeste 0 -- -- 78
2019-04-14 23:00:00 15.1 2 Noroeste 5 Noroeste 0 -- -- 68
2019-04-14 22:00:00 14.8 4 Oeste 11 Oeste 0 -- -- 68
2019-04-14 21:00:00 17.9 7 Oeste 16 Oeste 0 -- -- 57
2019-04-14 20:00:00 20.5 6 Oeste 11 Oeste 0 -- -- 48
2019-04-14 19:00:00 21.8 3 Nordeste 13 Nordeste 0 -- -- 45
2019-04-14 18:00:00 21.2 6 Nordeste 17 Oeste 0 -- -- 47
2019-04-14 17:00:00 21.8 4 Sudeste 17 Oeste 0 -- -- 45
2019-04-14 16:00:00 20.9 7 Oeste 19 Oeste 0 -- -- 48
2019-04-14 15:00:00 19.7 13 Sudoeste 24 Sudoeste 0 -- -- 52
2019-04-14 14:00:00 19.3 9 Sudoeste 22 Oeste 0 -- -- 52
2019-04-14 13:00:00 17.7 10 Sudoeste 17 Sudoeste 0 -- -- 60
2019-04-14 12:00:00 15.3 10 Sudoeste 16 Oeste 0 -- -- 70
2019-04-14 11:00:00 14.2 10 Oeste 20 Sudoeste 0 -- -- 76
2019-04-14 10:00:00 12.3 12 Oeste 19 Oeste 0 -- -- 84
2019-04-14 09:00:00 11 9 Sudoeste 17 Sudoeste 0 -- -- 89
2019-04-14 08:00:00 10.8 9 Sudoeste 15 Sudoeste 0 -- -- 90
2019-04-14 07:00:00 10.8 13 Sudoeste 20 Sudoeste 0 -- -- 88
2019-04-14 06:00:00 11 13 Sudoeste 18 Sudoeste 0 -- -- 86
2019-04-14 05:00:00 11 13 Sudoeste 18 Sudoeste 0 -- -- 83
2019-04-14 04:00:00 10.7 12 Sudoeste 15 Sudoeste 0 -- -- 78
2019-04-14 03:00:00 10.2 11 Sudoeste 17 Oeste 0 -- -- 75
2019-04-14 02:00:00 11 9 Oeste 14 Oeste 0 -- -- 68
2019-04-14 01:00:00 11.4 10 Sudoeste 17 Sudoeste 0 -- -- 61
2019-04-14 00:00:00 11.8 12 Sudoeste 15 Sudoeste 0 -- -- 55
2019-04-13 23:00:00 10.9 9 Sudoeste 12 Oeste 0 -- -- 52
2019-04-13 22:00:00 12.9 6 Oeste 11 Sur 0 -- -- 42
2019-04-13 21:00:00 14.4 9 Sur 14 Sudoeste 0 -- -- 40
2019-04-13 20:00:00 19.6 10 Sudoeste 15 Sudoeste 0 -- -- 28
2019-04-13 19:00:00 20.1 12 Oeste 18 Oeste 0 -- -- 27
2019-04-13 18:00:00 20.6 10 Sudoeste 20 Oeste 0 -- -- 24
2019-04-13 17:00:00 21 6 Oeste 20 Oeste 0 -- -- 25
2019-04-13 16:00:00 19.6 8 Norte 15 Norte 0 -- -- 29
2019-04-13 15:00:00 18.8 6 Norte 15 Norte 0 -- -- 29
2019-04-13 14:00:00 18.1 6 Este 16 Este 0 -- -- 31
2019-04-13 13:00:00 17.2 4 Sur 12 Sur 0 -- -- 35
2019-04-13 12:00:00 15 5 Sudeste 12 Este 0 -- -- 41
2019-04-13 11:00:00 11.6 4 Sur 9 Sudeste 0 -- -- 56
2019-04-13 10:00:00 7 5 Este 10 Sudeste 0 -- -- 69
2019-04-13 09:00:00 2.6 9 Sudeste 13 Sudeste 0 -- -- 80
2019-04-13 08:00:00 0.2 6 Sudeste 11 Sudeste 0 -- -- 87
2019-04-13 07:00:00 -0.4 8 Sudeste 13 Sudeste 0 -- -- 87
2019-04-13 06:00:00 1.3 8 Sur 12 Sudoeste 0 -- -- 83
2019-04-13 05:00:00 1 7 Sur 13 Sur 0 -- -- 84
2019-04-13 04:00:00 1.7 9 Sudeste 15 Este 0 -- -- 81
2019-04-13 03:00:00 3.2 13 Sudeste 15 Este 0 -- -- 75
2019-04-13 02:00:00 7.5 2 Nordeste 3 Nordeste 0 -- -- 53
2019-04-13 01:00:00 8.6 2 Este 4 Este 0 -- -- 51
2019-04-13 00:00:00 8.8 2 Norte 4 Norte 0 -- -- 50
2019-04-12 23:00:00 10 3 Norte 5 Noroeste 0 -- -- 47
2019-04-12 22:00:00 11 2 Norte 6 Norte 0 -- -- 43
2019-04-12 21:00:00 12.6 3 Norte 13 Nordeste 0 -- -- 41
2019-04-12 20:00:00 15 7 Nordeste 17 Norte 0 -- -- 37
2019-04-12 19:00:00 16.4 4 Noroeste 21 Nordeste 0 -- -- 35
2019-04-12 18:00:00 16.2 6 Nordeste 17 Norte 0 -- -- 36
2019-04-12 17:00:00 16.2 6 Nordeste 18 Nordeste 0 -- -- 38
2019-04-12 16:00:00 15 11 Norte 23 Norte 0 -- -- 40
2019-04-12 15:00:00 14.4 11 Noroeste 26 Norte 0 -- -- 41
2019-04-12 14:00:00 13.2 8 Norte 22 Noroeste 0 -- -- 47
2019-04-12 13:00:00 12 9 Noroeste 19 Norte 0 -- -- 50
2019-04-12 12:00:00 10.4 5 Noroeste 10 Norte 0 -- -- 59
2019-04-12 11:00:00 8 4 Nordeste 10 Nordeste 0 -- -- 73
2019-04-12 10:00:00 6 4 Nordeste 7 Nordeste 0 -- -- 81
2019-04-12 09:00:00 3.1 2 Norte 5 Norte 0 -- -- 97
2019-04-12 08:00:00 -0.1 2 Norte 3 Nordeste 0 -- -- 98
2019-04-12 07:00:00 0.6 2 Noroeste 6 Noroeste 0 -- -- 95
2019-04-12 06:00:00 1.5 4 Noroeste 6 Noroeste 0 -- -- 95
2019-04-12 05:00:00 1.6 0 Calma 3 Sudeste 0 -- -- 91
2019-04-12 04:00:00 2.7 2 Nordeste 3 Este 0 -- -- 90
2019-04-12 03:00:00 3 2 Nordeste 14 Sudeste 0 -- -- 89
2019-04-12 02:00:00 3.9 5 Este 18 Este 0 -- -- 86
2019-04-12 01:00:00 4.9 11 Este 21 Este 0 -- -- 82
2019-04-12 00:00:00 5.9 14 Este 23 Este 0 -- -- 78
2019-04-11 23:00:00 7.3 13 Nordeste 24 Este 0 -- -- 68
2019-04-11 22:00:00 8.4 3 Norte 6 Noroeste 0 -- -- 60
2019-04-11 21:00:00 10 6 Noroeste 15 Noroeste 0 -- -- 56
2019-04-11 20:00:00 12.8 10 Noroeste 20 Norte 0 -- -- 44
2019-04-11 19:00:00 12.6 13 Norte 23 Norte 0 -- -- 45
2019-04-11 18:00:00 12.8 12 Noroeste 19 Noroeste 0 -- -- 42
2019-04-11 17:00:00 12.9 12 Noroeste 23 Nordeste 0 -- -- 42
2019-04-11 16:00:00 12.3 7 Norte 21 Oeste 0 -- -- 48
2019-04-11 15:00:00 12.9 10 Noroeste 22 Noroeste 0 -- -- 48
2019-04-11 14:00:00 11.4 8 Noroeste 17 Noroeste 0 -- -- 58
2019-04-11 13:00:00 11.1 7 Noroeste 13 Noroeste 0 -- -- 61
2019-04-11 12:00:00 10.1 3 Noroeste 9 Este 0 -- -- 61
2019-04-11 11:00:00 8.5 6 Sudeste 12 Sudeste 0 -- -- 71
2019-04-11 10:00:00 6.2 2 Oeste 5 Oeste 0 -- -- 86
2019-04-11 09:00:00 3.1 2 Sudoeste 5 Sudoeste 0 -- -- 97
2019-04-11 08:00:00 0.8 4 Oeste 6 Oeste 0 -- -- 94
2019-04-11 07:00:00 1.3 2 Oeste 3 Sudoeste 0 -- -- 93
2019-04-11 06:00:00 2.1 2 Este 4 Norte 0 -- -- 93
2019-04-11 05:00:00 2.3 4 Sudoeste 5 Sudoeste 0 -- -- 89
2019-04-11 04:00:00 4.2 0 Calma 7 Este 0 -- -- 85
2019-04-11 03:00:00 4.9 4 Norte 14 Nordeste 0 -- -- 83
2019-04-11 02:00:00 5.2 0 Calma 14 Nordeste 0 -- -- 86
2019-04-11 01:00:00 6.8 5 Nordeste 15 Nordeste 0 -- -- 82
2019-04-11 00:00:00 5.6 3 Sur 9 Sudoeste 0 -- -- 92
2019-04-10 23:00:00 6.3 3 Oeste 12 Oeste 0 -- -- 89
2019-04-10 22:00:00 5.4 4 Oeste 11 Oeste 0 -- -- 91
2019-04-10 21:00:00 7 5 Oeste 10 Oeste 0 -- -- 87
2019-04-10 20:00:00 9.7 5 Oeste 13 Oeste 0 -- -- 79
2019-04-10 19:00:00 10 3 Noroeste 8 Oeste 0.2 -- -- 74
2019-04-10 18:00:00 10.5 3 Noroeste 13 Nordeste 0 -- -- 70
2019-04-10 17:00:00 10.4 9 Este 22 Nordeste 0.6 -- -- 78
2019-04-10 16:00:00 10 16 Nordeste 23 Nordeste 0.2 -- -- 74
2019-04-10 15:00:00 11.5 11 Noroeste 20 Noroeste 0 -- -- 57
2019-04-10 14:00:00 11 6 Noroeste 19 Oeste 0 -- -- 61
2019-04-10 13:00:00 8.7 13 Noroeste 23 Oeste 0 -- -- 70
2019-04-10 12:00:00 7.9 10 Oeste 23 Oeste 0.2 -- -- 80
2019-04-10 11:00:00 6.5 12 Oeste 22 Oeste 0 -- -- 86
2019-04-10 10:00:00 4.9 10 Oeste 24 Oeste 0.8 -- -- 96
2019-04-10 09:00:00 4.2 13 Oeste 23 Oeste 0 -- -- 96
2019-04-10 08:00:00 3.5 13 Oeste 21 Oeste 0 -- -- 97
2019-04-10 07:00:00 2.2 9 Oeste 14 Oeste 0 -- -- 97
2019-04-10 06:00:00 2.2 8 Oeste 18 Oeste 0 -- -- 95
2019-04-10 05:00:00 2.7 8 Oeste 22 Sudoeste 0 -- -- 95
2019-04-10 04:00:00 3.4 13 Oeste 27 Oeste 0 -- -- 94
2019-04-10 03:00:00 3.9 15 Oeste 34 Oeste 0 -- -- 92
2019-04-10 02:00:00 5.1 15 Oeste 28 Oeste 0 -- -- 91
2019-04-10 01:00:00 5.5 16 Oeste 27 Oeste 0 -- -- 89
2019-04-10 00:00:00 5.6 14 Oeste 25 Sudoeste 0 -- -- 87
2019-04-09 23:00:00 6.4 17 Oeste 38 Oeste 0 -- -- 81
2019-04-09 22:00:00 7.4 21 Oeste 33 Oeste 0 -- -- 75
2019-04-09 21:00:00 7.8 17 Oeste 40 Oeste 0 -- -- 68
2019-04-09 20:00:00 10.6 22 Oeste 43 Oeste 0 -- -- 57
2019-04-09 19:00:00 10.8 16 Oeste 38 Oeste 0 -- -- 60
2019-04-09 18:00:00 11.5 21 Oeste 41 Oeste 0 -- -- 56
2019-04-09 17:00:00 11.9 16 Oeste 37 Noroeste 0 -- -- 52
2019-04-09 16:00:00 11.6 25 Oeste 41 Noroeste 0 -- -- 56
2019-04-09 15:00:00 8.8 23 Oeste 46 Oeste 0 -- -- 71
2019-04-09 14:00:00 7.7 27 Oeste 46 Sudoeste 0 -- -- 77
2019-04-09 13:00:00 6.9 31 Sudoeste 46 Sudoeste 0.6 -- -- 85
2019-04-09 12:00:00 6.6 26 Sudoeste 41 Sudoeste 0.6 -- -- 86
2019-04-09 11:00:00 7.9 26 Sudoeste 42 Sudoeste 0 -- -- 77
2019-04-09 10:00:00 6.9 21 Sudoeste 32 Sudoeste 0 -- -- 85
2019-04-09 09:00:00 5.6 15 Sudoeste 27 Sudoeste 0 -- -- 90
2019-04-09 08:00:00 4.7 21 Sudoeste 30 Sudoeste 0 -- -- 90
2019-04-09 07:00:00 4.3 19 Sudoeste 27 Sudoeste 0 -- -- 92
2019-04-09 06:00:00 2.8 10 Sur 17 Sudoeste 0 -- -- 95
2019-04-09 05:00:00 2.2 12 Sur 19 Sudoeste 0 -- -- 95
2019-04-09 04:00:00 2.5 13 Sudoeste 18 Sudoeste 0 -- -- 95
2019-04-09 03:00:00 2.3 12 Sudoeste 22 Sudoeste 0 -- -- 94
2019-04-09 02:00:00 3.1 10 Sudoeste 23 Sudoeste 0 -- -- 92
2019-04-09 01:00:00 4.1 18 Sudoeste 23 Sudoeste 0 -- -- 93
2019-04-09 00:00:00 3.9 13 Sudoeste 20 Sudoeste 0 -- -- 91
2019-04-08 23:00:00 5 13 Sudoeste 30 Sudoeste 0 -- -- 88
2019-04-08 22:00:00 7.2 17 Sudoeste 47 Sudoeste 0 -- -- 84
2019-04-08 21:00:00 9.3 19 Oeste 33 Oeste 0 -- -- 63
2019-04-08 20:00:00 10.9 16 Noroeste 32 Noroeste 0 -- -- 58
2019-04-08 19:00:00 12.7 13 Oeste 25 Noroeste 0 -- -- 48
2019-04-08 18:00:00 14 15 Oeste 30 Oeste 0 -- -- 44
2019-04-08 17:00:00 13.3 14 Oeste 30 Sudoeste 0 -- -- 48
2019-04-08 16:00:00 12.9 10 Oeste 22 Oeste 0 -- -- 60
2019-04-08 15:00:00 11.2 14 Sudoeste 33 Sudoeste 0.4 -- -- 72
2019-04-08 14:00:00 12.4 13 Oeste 29 Oeste 0 -- -- 61
2019-04-08 13:00:00 11.1 14 Oeste 24 Oeste 0 -- -- 64
2019-04-08 12:00:00 10.3 12 Oeste 27 Oeste 0 -- -- 70
2019-04-08 11:00:00 10 11 Oeste 20 Oeste 0 -- -- 75
2019-04-08 10:00:00 8 10 Sudoeste 22 Oeste 0 -- -- 86
2019-04-08 09:00:00 7.5 12 Oeste 27 Oeste 0 -- -- 90
2019-04-08 08:00:00 7.8 13 Oeste 24 Sudoeste 0 -- -- 95
2019-04-08 07:00:00 8.1 19 Oeste 36 Oeste 0 -- -- 94
2019-04-08 06:00:00 7.6 18 Sudoeste 23 Sudoeste 0 -- -- 95
2019-04-08 05:00:00 7.3 12 Sur 20 Sudoeste 0.4 -- -- 93
2019-04-08 04:00:00 7.8 19 Sudoeste 27 Sudoeste 0 -- -- 93
2019-04-08 03:00:00 7.6 16 Sudoeste 24 Sudoeste 0 -- -- 94
2019-04-08 02:00:00 7.7 15 Sudoeste 21 Sudoeste 0 -- -- 94
2019-04-08 01:00:00 7.4 15 Sudoeste 21 Sudoeste 0 -- -- 95
2019-04-08 00:00:00 6.8 13 Sur 19 Sur 0 -- -- 93
2019-04-07 23:00:00 6.1 13 Sudeste 20 Sudeste 0.4 -- -- 94
2019-04-07 22:00:00 6 12 Sudeste 19 Sudeste 0.6 -- -- 94
2019-04-07 21:00:00 6.2 11 Sudeste 18 Sudeste 0.6 -- -- 90
2019-04-07 20:00:00 6.7 10 Sur 14 Sudeste 0.4 -- -- 88
2019-04-07 19:00:00 6.7 10 Sudoeste 26 Sudoeste 1.2 -- -- 86
2019-04-07 18:00:00 7.2 19 Oeste 35 Sudoeste 0.2 -- -- 82
2019-04-07 17:00:00 9.1 25 Sudoeste 37 Sudoeste 0.2 -- -- 70
2019-04-07 16:00:00 11.4 17 Oeste 29 Sudoeste 0 -- -- 49
2019-04-07 15:00:00 12.7 20 Sudoeste 37 Sudoeste 0 -- -- 46
2019-04-07 14:00:00 11.3 17 Sudoeste 34 Sudoeste 0 -- -- 49
2019-04-07 13:00:00 9.8 14 Oeste 30 Oeste 0 -- -- 57
2019-04-07 12:00:00 8.5 12 Oeste 26 Oeste 0 -- -- 62
2019-04-07 11:00:00 6.3 10 Oeste 22 Oeste 0 -- -- 79
2019-04-07 10:00:00 4.7 13 Oeste 28 Oeste 0 -- -- 87
2019-04-07 09:00:00 2.2 13 Sudoeste 18 Sudoeste 0 -- -- 97
2019-04-07 08:00:00 1 11 Oeste 21 Oeste 0 -- -- 96
2019-04-07 07:00:00 1.1 12 Oeste 20 Oeste 0 -- -- 96
2019-04-07 06:00:00 1.4 12 Oeste 23 Sudoeste 0 -- -- 95
2019-04-07 05:00:00 2.7 16 Oeste 27 Oeste 0 -- -- 95
2019-04-07 04:00:00 2.6 13 Oeste 31 Oeste 0.4 -- -- 94
2019-04-07 03:00:00 2.9 16 Oeste 31 Oeste 1.2 -- -- 92
2019-04-07 02:00:00 3.6 16 Oeste 33 Oeste 0 -- -- 90
2019-04-07 01:00:00 3.1 16 Oeste 29 Oeste 0 -- -- 88
2019-04-07 00:00:00 3.4 20 Oeste 35 Oeste 0 -- -- 86
2019-04-06 23:00:00 3.7 22 Oeste 38 Sudoeste 0 -- -- 83
2019-04-06 22:00:00 4.7 18 Oeste 37 Oeste 0 -- -- 72
2019-04-06 21:00:00 6.5 23 Oeste 41 Oeste 0 -- -- 60
2019-04-06 20:00:00 7 21 Oeste 50 Oeste 0 -- -- 66
2019-04-06 19:00:00 8.5 31 Oeste 55 Oeste 0 -- -- 54
2019-04-06 18:00:00 8.7 32 Oeste 58 Oeste 0 -- -- 57
2019-04-06 17:00:00 7.9 33 Oeste 62 Oeste 0 -- -- 66
2019-04-06 16:00:00 9.1 36 Oeste 62 Oeste 0 -- -- 58
2019-04-06 15:00:00 8.7 37 Oeste 65 Oeste 0 -- -- 61
2019-04-06 14:00:00 7.3 41 Oeste 62 Sudoeste 0 -- -- 65
2019-04-06 13:00:00 7 31 Oeste 58 Oeste 0 -- -- 69
2019-04-06 12:00:00 5.8 36 Sudoeste 73 Sudoeste 0 -- -- 72
2019-04-06 11:00:00 5.9 42 Sudoeste 55 Sudoeste 0 -- -- 73
2019-04-06 10:00:00 3.9 28 Sudoeste 38 Sudoeste 0 -- -- 84
2019-04-06 09:00:00 3.3 22 Sudoeste 31 Sudoeste 0 -- -- 85
2019-04-06 08:00:00 2.5 17 Sudoeste 23 Sudoeste 0 -- -- 89
2019-04-06 07:00:00 2.5 14 Sudoeste 28 Sudoeste 0 -- -- 90
2019-04-06 06:00:00 2.3 19 Sudoeste 29 Sudoeste 0 -- -- 90
2019-04-06 05:00:00 2.3 18 Sudoeste 30 Sudoeste 0 -- -- 91
2019-04-06 04:00:00 2.6 17 Oeste 39 Oeste 0 -- -- 89
2019-04-06 03:00:00 2.7 15 Sudoeste 29 Oeste 0 -- -- 90
2019-04-06 02:00:00 3 18 Sudoeste 28 Sudoeste 0 -- -- 89
2019-04-06 01:00:00 2.9 16 Oeste 29 Oeste 0 -- -- 90
2019-04-06 00:00:00 2.8 19 Sudoeste 27 Sudoeste 0 -- -- 91
2019-04-05 23:00:00 2.7 14 Oeste 27 Sudoeste 0 -- -- 88
2019-04-05 22:00:00 3.8 17 Sudoeste 32 Oeste 0 -- -- 84
2019-04-05 21:00:00 5.2 19 Oeste 37 Sudoeste 0 -- -- 76
2019-04-05 20:00:00 7.4 15 Sudoeste 22 Sur 0 -- -- 69
2019-04-05 19:00:00 7.8 14 Sudoeste 30 Sudoeste 0 -- -- 70
2019-04-05 18:00:00 7.9 13 Sudoeste 25 Sudoeste 0 -- -- 72
2019-04-05 17:00:00 4 13 Oeste 33 Oeste 0.8 -- -- 90
2019-04-05 16:00:00 4.4 14 Noroeste 28 Sur 0 -- -- 80
2019-04-05 15:00:00 7.3 13 Sur 33 Sur 0 -- -- 73
2019-04-05 14:00:00 5.6 12 Sudoeste 18 Sudoeste 0.2 -- -- 81
2019-04-05 13:00:00 4.5 3 Sudoeste 24 Oeste 0.6 -- -- 83
2019-04-05 12:00:00 4.3 12 Oeste 24 Oeste 0.2 -- -- 83
2019-04-05 11:00:00 4.6 12 Oeste 23 Sudoeste 0 -- -- 83
2019-04-05 10:00:00 4.2 12 Sudoeste 17 Sudoeste 0.6 -- -- 89
2019-04-05 09:00:00 2.4 11 Sudoeste 36 Oeste 1.6 -- -- 92
2019-04-05 08:00:00 4.9 17 Sudoeste 28 Sudoeste 0 -- -- 84
2019-04-05 07:00:00 4.7 10 Sudoeste 17 Sudoeste 0 -- -- 86
2019-04-05 06:00:00 4.5 13 Sudoeste 24 Sudoeste 0 -- -- 86
2019-04-05 05:00:00 4.4 14 Sudoeste 24 Sur 0 -- -- 88
2019-04-05 04:00:00 4.4 16 Sudoeste 27 Sur 0.6 -- -- 87
2019-04-05 03:00:00 4.7 14 Sur 24 Sudeste 0.2 -- -- 82
2019-04-05 02:00:00 5.1 15 Sur 24 Sur 0 -- -- 76
2019-04-05 01:00:00 5.1 15 Sudoeste 24 Sudoeste 0 -- -- 75
2019-04-05 00:00:00 5.2 6 Sudeste 14 Este 0 -- -- 79
2019-04-04 23:00:00 5.6 4 Noroeste 13 Sudoeste 0 -- -- 72
2019-04-04 22:00:00 6 8 Oeste 22 Noroeste 0 -- -- 69
2019-04-04 21:00:00 6.6 12 Noroeste 29 Noroeste 0 -- -- 61
2019-04-04 20:00:00 9 15 Oeste 33 Noroeste 0 -- -- 43
2019-04-04 19:00:00 10.5 19 Oeste 35 Oeste 0 -- -- 34
2019-04-04 18:00:00 11.7 17 Oeste 31 Oeste 0 -- -- 30
2019-04-04 17:00:00 11.9 13 Oeste 42 Sudoeste 0 -- -- 30
2019-04-04 16:00:00 11.4 22 Sudoeste 34 Sudoeste 0 -- -- 32
2019-04-04 15:00:00 10.2 17 Sudoeste 33 Sudoeste 0 -- -- 31
2019-04-04 14:00:00 9.4 17 Sudoeste 31 Sudoeste 0 -- -- 36
2019-04-04 13:00:00 9.4 10 Oeste 24 Oeste 0 -- -- 39
2019-04-04 12:00:00 7.6 8 Sudoeste 26 Sudoeste 0 -- -- 43
2019-04-04 11:00:00 5 13 Oeste 26 Sudoeste 0 -- -- 55
2019-04-04 10:00:00 1.9 18 Sudoeste 24 Sudoeste 0 -- -- 68
2019-04-04 09:00:00 -1.6 12 Sudoeste 17 Sudoeste 0 -- -- 79
2019-04-04 08:00:00 -4.1 13 Sudoeste 18 Sudoeste 0 -- -- 87
2019-04-04 07:00:00 -4.1 8 Sudoeste 15 Sudoeste 0 -- -- 85
2019-04-04 06:00:00 -3.8 10 Sudoeste 13 Sudoeste 0 -- -- 83
2019-04-04 05:00:00 -3.6 8 Sudoeste 13 Sudoeste 0 -- -- 82
2019-04-04 04:00:00 -1.6 4 Oeste 10 Noroeste 0 -- -- 75
2019-04-04 03:00:00 0.4 9 Noroeste 17 Norte 0 -- -- 71
2019-04-04 02:00:00 1.5 8 Noroeste 25 Noroeste 0 -- -- 66
2019-04-04 01:00:00 2 10 Noroeste 19 Noroeste 0 -- -- 63
2019-04-04 00:00:00 3.3 13 Noroeste 30 Noroeste 0 -- -- 56
2019-04-03 23:00:00 4.6 12 Noroeste 28 Noroeste 0 -- -- 52
2019-04-03 22:00:00 6 13 Noroeste 26 Noroeste 0 -- -- 44
2019-04-03 21:00:00 7.2 12 Noroeste 34 Noroeste 0 -- -- 39
2019-04-03 20:00:00 9.1 23 Norte 49 Noroeste 0 -- -- 40
2019-04-03 19:00:00 9.9 25 Norte 42 Noroeste 0 -- -- 38
2019-04-03 18:00:00 12.4 22 Noroeste 45 Noroeste 0 -- -- 31
2019-04-03 17:00:00 11.6 22 Noroeste 48 Oeste 0 -- -- 31
2019-04-03 16:00:00 12.2 27 Noroeste 47 Noroeste 0 -- -- 29
2019-04-03 15:00:00 12.1 23 Noroeste 41 Noroeste 0 -- -- 30
2019-04-03 14:00:00 11.6 15 Noroeste 33 Noroeste 0 -- -- 35
2019-04-03 13:00:00 10.4 10 Noroeste 25 Noroeste 0 -- -- 43
2019-04-03 12:00:00 7.3 11 Noroeste 25 Oeste 0 -- -- 62
2019-04-03 11:00:00 6.2 18 Noroeste 28 Oeste 0 -- -- 64
2019-04-03 10:00:00 5.6 12 Noroeste 20 Oeste 0 -- -- 70
2019-04-03 09:00:00 3.8 6 Sudoeste 10 Oeste 0 -- -- 76
2019-04-03 08:00:00 2.3 5 Oeste 14 Oeste 0 -- -- 79
2019-04-03 07:00:00 2.6 8 Oeste 16 Oeste 0 -- -- 77
2019-04-03 06:00:00 2 12 Sudoeste 16 Sudoeste 0 -- -- 77
2019-04-03 05:00:00 3 14 Sudoeste 16 Sudoeste 0 -- -- 73
2019-04-03 04:00:00 3.8 12 Sudoeste 14 Sudoeste 0 -- -- 73
2019-04-03 03:00:00 3.4 8 Sudoeste 10 Sudoeste 0 -- -- 73
2019-04-03 02:00:00 5.4 6 Oeste 14 Oeste 0 -- -- 65
2019-04-03 01:00:00 6.6 8 Oeste 15 Noroeste 0 -- -- 60
2019-04-03 00:00:00 9.3 9 Noroeste 25 Oeste 0 -- -- 54
2019-04-02 23:00:00 9.4 14 Oeste 22 Oeste 0 -- -- 46
2019-04-02 22:00:00 9.7 14 Sudoeste 20 Oeste 0 -- -- 49
2019-04-02 21:00:00 12.8 12 Oeste 23 Oeste 0 -- -- 39
2019-04-02 20:00:00 16.5 15 Oeste 31 Oeste 0 -- -- 32
2019-04-02 19:00:00 18.3 18 Oeste 35 Noroeste 0 -- -- 29
2019-04-02 18:00:00 17.6 15 Oeste 33 Noroeste 0 -- -- 36
2019-04-02 17:00:00 17.3 15 Oeste 31 Sudoeste 0 -- -- 39
2019-04-02 16:00:00 18.6 14 Oeste 28 Oeste 0 -- -- 38
2019-04-02 15:00:00 17.5 13 Oeste 28 Oeste 0 -- -- 40
2019-04-02 14:00:00 16.9 13 Oeste 27 Oeste 0 -- -- 42
2019-04-02 13:00:00 15.2 16 Oeste 36 Sudoeste 0 -- -- 48
2019-04-02 12:00:00 12.3 14 Sudoeste 21 Oeste 0 -- -- 69
2019-04-02 11:00:00 10.4 8 Oeste 15 Sudoeste 0.2 -- -- 78
2019-04-02 10:00:00 8.5 0 Calma 8 Sudoeste 0.2 -- -- 83
2019-04-02 09:00:00 7.4 8 Sudoeste 12 Sudoeste 0 -- -- 84
2019-04-02 08:00:00 7.1 11 Sudoeste 16 Sudoeste 0 -- -- 78
2019-04-02 07:00:00 6.5 12 Sudoeste 17 Sudoeste 0 -- -- 78
2019-04-02 06:00:00 5.6 12 Sudoeste 14 Sudoeste 0 -- -- 83
2019-04-02 05:00:00 5.6 9 Sudoeste 15 Oeste 0 -- -- 80
2019-04-02 04:00:00 6.2 10 Oeste 16 Oeste 0 -- -- 80
2019-04-02 03:00:00 6.4 11 Oeste 19 Oeste 0 -- -- 78
2019-04-02 02:00:00 7 10 Sudoeste 15 Sudoeste 0 -- -- 73
2019-04-02 01:00:00 8.1 6 Oeste 15 Oeste 0 -- -- 66
2019-04-02 00:00:00 9 13 Sudoeste 19 Sur 0 -- -- 66
2019-04-01 23:00:00 9.6 12 Sur 16 Sur 0 -- -- 65
2019-04-01 22:00:00 12.4 0 Calma 7 Norte 0 -- -- 43
2019-04-01 21:00:00 14 3 Noroeste 10 Noroeste 0 -- -- 39
2019-04-01 20:00:00 16.3 6 Noroeste 16 Noroeste 0 -- -- 33
2019-04-01 19:00:00 16.6 8 Noroeste 14 Noroeste 0 -- -- 32
2019-04-01 18:00:00 19 5 Nordeste 18 Norte 0 -- -- 30
2019-04-01 17:00:00 17.5 5 Nordeste 21 Norte 0 -- -- 32
2019-04-01 16:00:00 18.8 6 Norte 16 Nordeste 0 -- -- 30
2019-04-01 15:00:00 17.3 8 Norte 17 Norte 0 -- -- 36
2019-04-01 14:00:00 16.6 8 Norte 15 Norte 0 -- -- 41
2019-04-01 13:00:00 15.2 5 Norte 14 Norte 0 -- -- 49
2019-04-01 12:00:00 12.6 8 Norte 17 Nordeste 0 -- -- 59
2019-04-01 11:00:00 10.5 8 Nordeste 13 Este 0 -- -- 67
2019-04-01 10:00:00 7 9 Este 12 Este 0 -- -- 78
2019-04-01 09:00:00 4 6 Este 10 Este 0 -- -- 90
2019-04-01 08:00:00 3 9 Nordeste 15 Este 0 -- -- 91
2019-04-01 07:00:00 3.6 12 Este 14 Este 0 -- -- 90
2019-04-01 06:00:00 4 9 Este 12 Este 0 -- -- 89
2019-04-01 05:00:00 4.8 7 Este 13 Este 0 -- -- 86
2019-04-01 04:00:00 5.4 8 Este 11 Este 0 -- -- 84
2019-04-01 03:00:00 5.2 6 Nordeste 15 Sudeste 0 -- -- 84
2019-04-01 02:00:00 5.7 12 Sudeste 19 Sudeste 0 -- -- 80
2019-04-01 01:00:00 6.3 13 Sudeste 19 Este 0 -- -- 79
2019-04-01 00:00:00 7.7 17 Este 29 Este 0 -- -- 75
2019-03-31 23:00:00 8.8 15 Este 23 Este 0 -- -- 73
2019-03-31 22:00:00 10.2 16 Este 28 Este 0 -- -- 69
2019-03-31 21:00:00 12.4 18 Este 27 Este 0 -- -- 61
2019-03-31 20:00:00 14.6 14 Este 21 Este 0 -- -- 50
2019-03-31 19:00:00 15.5 9 Sudeste 22 Sudeste 0 -- -- 43
2019-03-31 18:00:00 15.9 15 Sudeste 28 Sudeste 0 -- -- 43
2019-03-31 17:00:00 16.6 20 Sudeste 31 Este 0 -- -- 40
2019-03-31 16:00:00 17.6 21 Nordeste 41 Nordeste 0 -- -- 37
2019-03-31 15:00:00 18.8 7 Noroeste 25 Nordeste 0 -- -- 34
2019-03-31 14:00:00 17.7 10 Norte 18 Norte 0 -- -- 38
2019-03-31 13:00:00 16.5 7 Norte 14 Norte 0 -- -- 39
2019-03-31 12:00:00 13.9 3 Norte 11 Sudeste 0 -- -- 43
2019-03-31 11:00:00 11.1 8 Este 14 Sudeste 0 -- -- 49
2019-03-31 10:00:00 6.6 12 Este 17 Sudeste 0 -- -- 56
2019-03-31 09:00:00 3.6 13 Este 18 Este 0 -- -- 62
2019-03-31 08:00:00 2.8 15 Sudeste 24 Este 0 -- -- 64
2019-03-31 07:00:00 3.1 15 Este 18 Sudeste 0 -- -- 62
2019-03-31 06:00:00 3.9 11 Este 14 Este 0 -- -- 59
2019-03-31 05:00:00 4.4 8 Este 17 Sudeste 0 -- -- 56
2019-03-31 03:00:00 4.5 13 Sudeste 24 Este 0 -- -- 56
2019-03-31 01:00:00 7 9 Sudeste 14 Sur 0 -- -- 47
2019-03-31 00:00:00 7.9 14 Sur 18 Sur 0 -- -- 46
2019-03-30 23:00:00 9.5 17 Sur 25 Sur 0 -- -- 42
2019-03-30 22:00:00 10.7 15 Sur 22 Sudeste 0 -- -- 39
2019-03-30 21:00:00 13.3 5 Nordeste 9 Nordeste 0 -- -- 31
2019-03-30 20:00:00 14.4 6 Nordeste 12 Nordeste 0 -- -- 31
2019-03-30 19:00:00 16.6 10 Norte 20 Norte 0 -- -- 28
2019-03-30 18:00:00 16.3 14 Nordeste 23 Norte 0 -- -- 30
2019-03-30 17:00:00 18.9 5 Sur 13 Nordeste 0 -- -- 24
2019-03-30 16:00:00 18.2 6 Nordeste 18 Este 0 -- -- 25
2019-03-30 15:00:00 20.1 8 Este 18 Norte 0 -- -- 25
2019-03-30 14:00:00 19.1 7 Este 21 Este 0 -- -- 26
2019-03-30 13:00:00 18.3 8 Sudeste 15 Sudeste 0 -- -- 27
2019-03-30 12:00:00 16.4 4 Nordeste 16 Sudeste 0 -- -- 32
2019-03-30 11:00:00 14.2 11 Sudeste 20 Sudeste 0 -- -- 44
2019-03-30 10:00:00 11 15 Sudeste 22 Sudeste 0 -- -- 51
2019-03-30 09:00:00 6.5 17 Sudeste 23 Sudeste 0 -- -- 64
2019-03-30 08:00:00 2.6 15 Sudeste 20 Sudeste 0 -- -- 74
2019-03-30 07:00:00 2.4 12 Sudeste 19 Sudeste 0 -- -- 74
2019-03-30 06:00:00 3.8 13 Sudeste 19 Sudeste 0 -- -- 70
2019-03-30 05:00:00 3.6 15 Sudeste 21 Sur 0 -- -- 72
2019-03-30 04:00:00 4.3 16 Sur 30 Sur 0 -- -- 67
2019-03-30 03:00:00 5.7 23 Sur 33 Sur 0 -- -- 62
2019-03-30 02:00:00 5.8 21 Sur 26 Sur 0 -- -- 54
2019-03-30 01:00:00 6.4 19 Sur 22 Sur 0 -- -- 49
2019-03-30 00:00:00 6.5 19 Sur 23 Sur 0 -- -- 49
2019-03-29 23:00:00 7.6 19 Sur 24 Sur 0 -- -- 44
2019-03-29 22:00:00 9.1 19 Sur 23 Sur 0 -- -- 38
2019-03-29 21:00:00 10.8 16 Sur 20 Sur 0 -- -- 34
2019-03-29 20:00:00 12 15 Sur 22 Sur 0 -- -- 33
2019-03-29 19:00:00 16.2 17 Sur 27 Sudoeste 0 -- -- 29
2019-03-29 18:00:00 18.7 7 Sudoeste 23 Sur 0 -- -- 24
2019-03-29 17:00:00 19 8 Sur 26 Sudoeste 0 -- -- 24
2019-03-29 16:00:00 19.3 11 Sudoeste 27 Sur 0 -- -- 24
2019-03-29 15:00:00 19 12 Sur 30 Sur 0 -- -- 24
2019-03-29 14:00:00 18.5 9 Sur 27 Sudeste 0 -- -- 25
2019-03-29 13:00:00 17.9 17 Sur 32 Sur 0 -- -- 26
2019-03-29 12:00:00 16.4 23 Sur 37 Sur 0 -- -- 29
2019-03-29 11:00:00 14.9 27 Sur 40 Sur 0 -- -- 31
2019-03-29 10:00:00 12.8 25 Sur 35 Sur 0 -- -- 37
2019-03-29 09:00:00 6.4 7 Sudeste 13 Sudeste 0 -- -- 54
2019-03-29 08:00:00 2.4 9 Este 12 Sudeste 0 -- -- 63
2019-03-29 07:00:00 0.4 6 Este 9 Este 0 -- -- 67
2019-03-29 06:00:00 0.9 9 Sudeste 13 Sudeste 0 -- -- 64
2019-03-29 05:00:00 1.9 12 Sudeste 14 Sudeste 0 -- -- 63
2019-03-29 04:00:00 2.2 12 Sudeste 16 Sudeste 0 -- -- 62
2019-03-29 03:00:00 4.7 11 Sudeste 17 Sudeste 0 -- -- 65
2019-03-29 02:00:00 6.5 11 Sudeste 13 Sudeste 0 -- -- 63
2019-03-29 01:00:00 6.8 6 Este 7 Este 0 -- -- 60
2019-03-29 00:00:00 8.3 4 Nordeste 12 Este 0 -- -- 55
2019-03-28 23:00:00 9.9 11 Este 19 Este 0 -- -- 50
2019-03-28 22:00:00 10.3 13 Sudeste 21 Sudeste 0 -- -- 47
2019-03-28 21:00:00 12.1 9 Norte 14 Norte 0 -- -- 38
2019-03-28 20:00:00 14.7 8 Nordeste 13 Nordeste 0 -- -- 30
2019-03-28 19:00:00 17.2 8 Nordeste 14 Norte 0 -- -- 25
2019-03-28 18:00:00 18.1 9 Norte 17 Noroeste 0 -- -- 24
2019-03-28 17:00:00 18.9 5 Noroeste 18 Sudoeste 0 -- -- 23
2019-03-28 16:00:00 18.5 9 Norte 15 Nordeste 0 -- -- 24
2019-03-28 15:00:00 18.5 6 Sudeste 18 Norte 0 -- -- 24
2019-03-28 14:00:00 18.1 7 Norte 17 Este 0 -- -- 25
2019-03-28 13:00:00 16.5 6 Nordeste 15 Norte 0 -- -- 26
2019-03-28 12:00:00 15 8 Nordeste 13 Nordeste 0 -- -- 30
2019-03-28 11:00:00 11.7 8 Nordeste 16 Nordeste 0 -- -- 34
2019-03-28 10:00:00 7.9 10 Nordeste 17 Este 0 -- -- 43
2019-03-28 09:00:00 4.5 10 Este 15 Este 0 -- -- 51
2019-03-28 08:00:00 1.6 6 Este 9 Este 0 -- -- 56
2019-03-28 07:00:00 0 4 Norte 10 Nordeste 0 -- -- 60
2019-03-28 06:00:00 1 6 Nordeste 9 Nordeste 0 -- -- 56
2019-03-28 05:00:00 1.1 0 Calma 4 Norte 0 -- -- 51
2019-03-28 04:00:00 0.4 0 Calma 8 Norte 0 -- -- 53
2019-03-28 03:00:00 4.1 4 Norte 19 Nordeste 0 -- -- 44
2019-03-28 02:00:00 5.8 13 Nordeste 24 Nordeste 0 -- -- 39
2019-03-28 01:00:00 6.2 17 Nordeste 25 Nordeste 0 -- -- 42
2019-03-28 00:00:00 7.7 18 Nordeste 26 Nordeste 0 -- -- 38
2019-03-27 23:00:00 8.7 14 Nordeste 26 Nordeste 0 -- -- 36
2019-03-27 22:00:00 10.1 18 Nordeste 31 Nordeste 0 -- -- 34
2019-03-27 21:00:00 11.6 18 Nordeste 28 Nordeste 0 -- -- 31
2019-03-27 20:00:00 13.4 16 Nordeste 36 Nordeste 0 -- -- 24
2019-03-27 19:00:00 16.6 20 Nordeste 36 Nordeste 0 -- -- 21
2019-03-27 18:00:00 18.7 18 Nordeste 30 Nordeste 0 -- -- 19
2019-03-27 17:00:00 19.6 15 Nordeste 28 Nordeste 0 -- -- 17
2019-03-27 16:00:00 19.5 13 Nordeste 26 Nordeste 0 -- -- 17
2019-03-27 15:00:00 18.6 14 Nordeste 30 Nordeste 0 -- -- 18
2019-03-27 14:00:00 17.7 12 Nordeste 27 Nordeste 0 -- -- 22
2019-03-27 13:00:00 16.1 13 Nordeste 21 Nordeste 0 -- -- 26
2019-03-27 12:00:00 13 9 Norte 19 Nordeste 0 -- -- 32
2019-03-27 11:00:00 10.7 9 Nordeste 16 Este 0 -- -- 33
2019-03-27 10:00:00 7.1 7 Norte 12 Norte 0 -- -- 41
2019-03-27 09:00:00 3.6 5 Norte 7 Noroeste 0 -- -- 57
2019-03-27 08:00:00 -0.3 4 Norte 8 Noroeste 0 -- -- 72
2019-03-27 07:00:00 -0.2 0 Calma 13 Nordeste 0 -- -- 60
2019-03-27 06:00:00 0.8 9 Nordeste 13 Norte 0 -- -- 61
2019-03-27 05:00:00 0.9 7 Nordeste 10 Norte 0 -- -- 58
2019-03-27 04:00:00 0.5 2 Noroeste 9 Nordeste 0 -- -- 57
2019-03-27 03:00:00 2.8 8 Nordeste 15 Nordeste 0 -- -- 47
2019-03-27 02:00:00 3.3 5 Norte 14 Norte 0 -- -- 43
2019-03-27 01:00:00 4.9 10 Nordeste 14 Nordeste 0 -- -- 38
2019-03-27 00:00:00 6.6 12 Nordeste 21 Nordeste 0 -- -- 34